Terminal Aerodrome Forecast
Issued by NWS Twin Cities, MN

Home | Current Version | Previous Version | Graphics & Text | Print | Product List | Glossary On
Versions: 1 2 3 4 5 6 7 8 9 10 11 12 13 14 15 16
078
FTUS43 KMPX 141713 AAA
TAFEAU
TAF AMD
KEAU 141713Z 1417/1512 15004KT P6SM VCSH SCT007 OVC012
     FM142000 VRB03KT P6SM OVC022
     FM150500 00000KT 3SM BR SCT002
     FM150600 00000KT 1/4SM FG VV002=

USA.gov is the U.S. government's official web portal to all federal, state and local government web resources and services.